CDT,Max TemperatureF,Mean TemperatureF,Min TemperatureF,Max Dew PointF,MeanDew PointF,Min DewpointF,Max Humidity, Mean Humidity, Min Humidity, Max Sea Level PressureIn, Mean Sea Level PressureIn, Min Sea Level PressureIn, Max VisibilityMiles, Mean VisibilityMiles, Min VisibilityMiles, Max Wind SpeedMPH, Mean Wind SpeedMPH, Max Gust SpeedMPH,PrecipitationIn, CloudCover, Events, WindDirDegrees
2014-3-1,29,16,3,23,7,-2,86,73,59,30.49,30.33,30.09,10,7,1,26,20,31,0.01,8,Snow,14
2014-3-2,4,3,1,-2,-8,-13,87,69,51,30.64,30.56,30.44,10,8,0,24,18,29,T,4,Snow,9
2014-3-3,17,5,-7,2,-7,-14,72,56,39,30.66,30.51,30.31,10,10,9,20,7,23,T,0,Snow,127
2014-3-4,38,24,9,23,12,2,73,58,43,30.29,30.14,30.04,10,10,10,16,7,19,0.00,0,,159
2014-3-5,34,30,26,27,24,21,92,78,64,30.34,30.24,30.11,10,5,1,15,7,18,T,6,Snow,27
2014-3-6,46,31,16,32,25,15,96,77,58,30.32,30.17,29.95,7,5,2,16,7,20,0.00,2,,155
2014-3-7,56,43,30,39,32,23,82,68,54,30.12,29.94,29.87,10,6,4,25,13,31,0.00,2,,184
2014-3-8,40,32,24,26,23,21,85,70,54,30.37,30.28,30.11,10,10,8,22,10,25,0.00,5,,357
2014-3-9,61,41,21,32,26,19,92,62,31,30.36,30.13,29.92,10,9,5,26,11,33,0.00,0,,201
2014-3-10,73,54,35,40,32,26,76,51,25,29.92,29.78,29.66,10,10,9,13,5,16,0.00,0,,214
2014-3-11,66,51,35,44,36,29,92,68,44,29.99,29.67,29.50,10,9,4,37,16,47,0.26,4,Rain-Snow-Thunderstorm,36
2014-3-12,53,41,29,31,27,23,85,62,38,30.24,30.14,30.02,10,10,10,25,11,31,0.00,1,,319
2014-3-13,67,45,23,31,27,21,96,59,22,30.12,29.98,29.79,10,10,10,21,8,26,0.00,0,,198
2014-3-14,62,48,33,30,25,21,70,46,22,30.01,29.88,29.68,10,10,10,24,12,31,0.00,0,,273
2014-3-15,73,50,27,38,29,23,85,52,19,30.07,29.90,29.78,10,10,10,32,12,42,0.00,1,Thunderstorm,159
2014-3-16,39,30,21,30,23,15,85,65,44,30.34,30.20,30.10,10,9,2,28,16,35,T,5,Snow,22
2014-3-17,54,37,19,26,20,13,77,53,29,30.12,29.82,29.60,10,10,4,23,13,27,0.00,0,,171
2014-3-18,61,49,37,37,32,24,76,58,39,29.67,29.52,29.46,10,10,10,29,11,37,0.00,3,,162
2014-3-19,54,42,29,35,27,22,82,55,28,30.14,30.01,29.69,10,8,2,29,14,36,0.00,4,,314
2014-3-20,72,49,25,28,25,22,85,51,16,30.10,29.97,29.80,10,8,2,32,8,39,0.00,0,,210
2014-3-21,64,48,32,35,29,23,82,53,23,30.20,29.91,29.79,10,10,9,28,12,34,0.00,0,,354
2014-3-22,43,35,26,26,15,4,78,50,21,30.53,30.37,30.22,10,9,2,23,15,30,T,3,Snow,5
2014-3-23,41,29,17,21,11,5,75,50,25,30.59,30.49,30.36,10,10,2,13,6,16,0.00,2,Snow,23
2014-3-24,37,31,24,31,23,9,92,64,36,30.36,30.29,30.21,10,5,0,12,5,15,0.06,7,Fog-Snow,152
2014-3-25,40,30,20,19,11,3,84,53,22,30.44,30.34,30.27,10,10,10,29,9,36,0.00,0,,332
2014-3-26,60,40,20,40,24,12,89,58,27,30.24,29.98,29.74,10,9,4,40,19,48,0.04,3,Rain,176
2014-3-27,73,55,37,56,41,28,83,62,40,29.85,29.52,29.28,10,10,6,39,22,47,0.04,6,Rain-Thunderstorm,219
2014-3-28,53,44,35,33,30,28,82,63,44,30.22,30.06,29.86,10,10,7,17,8,21,0.00,5,,354
2014-3-29,56,41,26,31,27,24,92,61,30,30.35,30.26,30.19,10,8,3,13,6,16,0.00,1,,59
2014-3-30,76,58,39,34,32,29,70,46,21,30.15,29.95,29.76,10,9,6,36,18,43,0.00,0,,179
2014-3-31,81,57,33,45,34,15,49,32,14,29.99,29.67,29.52,10,10,10,38,24,47,T,1,Rain-Thunderstorm,217